Draper, Utah
Current Conditions -  °F | °C
As of 8:53 AM on Friday 28 Nov 2014 (Local Time) from KSLC Reporting Station
Broken Clouds Broken Clouds  
Wind Chill: 46°   Ceiling: 17000
Heat Index: 48°   Visibility: 10mi
Dew Point: 22°   Wind: 5mph
Humidity: 36%   Direction: 120°ESE
Pressure: 30"   Gusts: NA
Location:  40.52°N, 111.86°W
Report Text: KSLC 281553Z 12004KT 10SM FEW140 BKN170 BKN230 09/M06 A3000 RMK AO2 SLP144 ACSL DSNT NW T00891056
Loading
Personal Weather Stations






























Interactive Weather Map New forecast layout! Learn more

10-Day Weather Forecast

Advertisements
Track Severe Weather on mobile